Time;durP1;ratioP1;P1;durP2;ratioP2;P2;SDS_P1;SDS_P2;PMS_P1;PMS_P2;Temp;Humidity;BMP_temperature;BMP_pressure;BME280_temperature;BME280_humidity;BME280_pressure;Samples;Min_cycle;Max_cycle;Signal;HPM_P1;HPM_P2
2022/11/04 00:01:48;;;;;;;13.40;11.75;;;;;;;8.50;100.00;99988.59;6271666;22;20011;-86
2022/11/04 00:04:16;;;;;;;13.45;11.63;;;;;;;8.43;100.00;99988.91;6271626;22;19999;-86
2022/11/04 00:06:41;;;;;;;12.85;11.57;;;;;;;8.42;100.00;99997.81;6273052;22;20057;-86
2022/11/04 00:09:09;;;;;;;12.82;11.40;;;;;;;8.39;100.00;100007.72;6272782;22;20003;-86
2022/11/04 00:14:19;;;;;;;12.20;10.82;;;;;;;8.21;100.00;100009.56;6273159;22;20458;-87
2022/11/04 00:28:41;;;;;;;;;;;;;;;8.07;100.00;100010.31;6272693;22;20126;-85
2022/11/04 00:30:25;;;;;;;;;;;;;;;7.86;100.00;100028.22;6283950;22;20083;-85
2022/11/04 00:35:34;;;;;;;19.05;14.30;;;;;;;7.77;100.00;100018.06;6287258;22;20022;-86
2022/11/04 00:38:00;;;;;;;18.13;15.13;;;;;;;7.84;100.00;100026.56;6287916;22;20004;-86
2022/11/04 00:40:25;;;;;;;16.40;13.93;;;;;;;7.81;100.00;100027.56;6274462;22;20007;-86
2022/11/04 00:42:50;;;;;;;16.80;15.00;;;;;;;7.80;100.00;100030.31;6272562;22;20004;-86
2022/11/04 00:45:15;;;;;;;16.77;15.07;;;;;;;7.74;100.00;100035.00;6273178;22;20373;-85
2022/11/04 00:47:41;;;;;;;17.27;14.68;;;;;;;7.75;100.00;100035.84;6274118;22;20003;-85
2022/11/04 00:50:07;;;;;;;16.33;14.60;;;;;;;7.72;100.00;100036.00;6272499;22;20015;-85
2022/11/04 00:52:32;;;;;;;16.95;15.15;;;;;;;7.70;100.00;100037.91;6298540;22;20097;-85
2022/11/04 00:54:57;;;;;;;18.73;15.23;;;;;;;7.65;100.00;100037.25;6274479;22;20004;-85
2022/11/04 00:57:22;;;;;;;17.88;15.05;;;;;;;7.57;100.00;100032.38;6270669;22;20004;-86
2022/11/04 00:59:48;;;;;;;18.30;14.75;;;;;;;7.63;100.00;100045.28;6272554;22;20003;-86
2022/11/04 01:02:13;;;;;;;17.85;15.88;;;;;;;7.62;100.00;100048.03;6271650;22;20469;-85
2022/11/04 01:04:39;;;;;;;18.48;15.65;;;;;;;7.64;100.00;100059.38;6272056;22;20008;-86
2022/11/04 01:07:04;;;;;;;21.13;15.93;;;;;;;7.64;100.00;100047.00;6269886;22;20052;-86
2022/11/04 01:09:29;;;;;;;20.52;16.02;;;;;;;7.74;100.00;100065.94;6271246;22;20004;-86
2022/11/04 01:11:55;;;;;;;20.40;16.30;;;;;;;7.82;100.00;100068.19;6269888;22;20011;-86
2022/11/04 01:14:21;;;;;;;20.58;16.98;;;;;;;7.87;100.00;100068.81;6270631;22;20503;-85
2022/11/04 01:16:49;;;;;;;20.08;16.20;;;;;;;7.93;100.00;100074.63;6271140;22;20006;-85
2022/11/04 01:19:15;;;;;;;20.48;15.57;;;;;;;7.93;100.00;100068.47;6270299;22;20031;-86
2022/11/04 01:21:40;;;;;;;21.77;15.55;;;;;;;7.89;100.00;100070.44;6270250;22;20652;-86
2022/11/04 01:24:05;;;;;;;20.42;15.65;;;;;;;7.87;100.00;100069.66;6270190;22;20291;-86
2022/11/04 01:26:31;;;;;;;21.10;15.60;;;;;;;7.81;100.00;100064.66;6271061;22;20061;-86
2022/11/04 01:28:57;;;;;;;18.15;14.50;;;;;;;7.83;100.00;100085.81;6270994;22;20069;-86
2022/11/04 01:31:28;;;;;;;17.63;13.63;;;;;;;7.73;100.00;100072.16;6270725;22;20707;-85
2022/11/04 01:33:54;;;;;;;17.83;12.68;;;;;;;7.72;100.00;100075.75;6269978;22;20008;-85
2022/11/04 01:36:20;;;;;;;19.00;12.00;;;;;;;7.67;100.00;100072.47;6268120;22;20138;-86
2022/11/04 01:38:45;;;;;;;15.15;11.45;;;;;;;7.59;100.00;100069.38;6270735;22;20011;-85
2022/11/04 01:41:17;;;;;;;15.25;11.73;;;;;;;7.57;100.00;100073.91;6269539;22;20325;-85
2022/11/04 01:43:58;;;;;;;14.65;11.23;;;;;;;7.55;100.00;100079.25;6271206;22;20073;-85
2022/11/04 01:46:49;;;;;;;16.67;11.05;;;;;;;7.55;100.00;100075.75;6271178;22;20512;-86
2022/11/04 01:49:25;;;;;;;12.90;9.02;;;;;;;7.46;100.00;100063.84;6271879;22;20014;-84
2022/11/04 01:51:57;;;;;;;11.65;9.73;;;;;;;7.48;100.00;100077.84;6270857;22;20007;-85
2022/11/04 01:54:22;;;;;;;17.20;11.00;;;;;;;7.40;100.00;100067.66;6272384;22;20004;-85
2022/11/04 01:56:48;;;;;;;14.55;9.95;;;;;;;7.37;100.00;100069.59;6272238;22;20014;-86
2022/11/04 01:59:21;;;;;;;12.48;8.23;;;;;;;7.32;100.00;100069.81;6272168;22;20015;-85
2022/11/04 02:01:46;;;;;;;;;;;;;;;7.30;100.00;100089.34;6223643;22;1043661;-86
2022/11/04 02:04:25;;;;;;;13.25;8.57;;;;;;;7.32;100.00;100093.66;6271723;22;19914;-85
2022/11/04 02:06:54;;;;;;;10.40;7.68;;;;;;;7.30;100.00;100089.34;6271687;22;20012;-86
2022/11/04 02:09:21;;;;;;;10.52;7.20;;;;;;;7.17;100.00;100079.38;6271436;22;20019;-85
2022/11/04 02:14:32;;;;;;;11.40;7.15;;;;;;;7.16;100.00;100090.91;6273009;22;20023;-85
2022/11/04 02:17:11;;;;;;;12.75;6.68;;;;;;;7.14;100.00;100090.09;6273233;22;20038;-86
2022/11/04 02:20:12;;;;;;;8.82;6.20;;;;;;;7.14;100.00;100100.69;6273456;22;20049;-86
2022/11/04 02:22:52;;;;;;;7.93;5.90;;;;;;;7.10;100.00;100100.91;6272716;22;20034;-86
2022/11/04 02:25:30;;;;;;;11.48;6.30;;;;;;;7.05;100.00;100105.56;6271715;22;20355;-86
2022/11/04 02:27:58;;;;;;;10.23;5.88;;;;;;;7.00;100.00;100108.44;6270742;22;20425;-86
2022/11/04 02:30:24;;;;;;;12.55;6.10;;;;;;;6.97;100.00;100098.84;6271629;22;20015;-85
2022/11/04 02:32:49;;;;;;;10.10;5.55;;;;;;;6.94;100.00;100111.38;6272804;22;20015;-85
2022/11/04 02:35:36;;;;;;;12.98;5.60;;;;;;;6.93;100.00;100105.22;6273344;22;20076;-85
2022/11/04 02:38:09;;;;;;;10.13;5.05;;;;;;;6.90;100.00;100109.81;6273397;22;20031;-85
2022/11/04 02:41:27;;;;;;;11.00;5.40;;;;;;;6.80;100.00;100090.88;6273778;22;20539;-85
2022/11/04 02:44:03;;;;;;;12.32;6.03;;;;;;;6.87;100.00;100107.31;6245964;22;20008;-85
2022/11/04 02:46:37;;;;;;;8.48;5.18;;;;;;;6.83;100.00;100098.66;6273220;22;20013;-86
2022/11/04 02:49:11;;;;;;;11.27;6.35;;;;;;;6.80;100.00;100100.59;6272160;22;20003;-86
2022/11/04 02:51:43;;;;;;;12.65;6.88;;;;;;;6.78;100.00;100113.03;6273285;22;20598;-85
2022/11/04 02:54:19;;;;;;;11.93;8.40;;;;;;;6.76;100.00;100104.31;6271250;22;20008;-86
2022/11/04 02:56:49;;;;;;;15.20;9.30;;;;;;;6.72;100.00;100109.72;6270555;22;20089;-85
2022/11/04 02:59:21;;;;;;;14.57;9.40;;;;;;;6.70;100.00;100108.09;6272734;22;20053;-85
2022/11/04 03:01:49;;;;;;;15.60;10.13;;;;;;;6.69;100.00;100109.03;6272585;22;20043;-85
2022/11/04 03:04:20;;;;;;;16.50;11.10;;;;;;;6.66;100.00;100099.44;6271774;22;20031;-85
2022/11/04 03:06:48;;;;;;;17.88;11.25;;;;;;;6.66;100.00;100107.38;6270805;22;20114;-86
2022/11/04 03:09:15;;;;;;;19.08;11.25;;;;;;;6.59;100.00;100098.00;6271626;22;20370;-85
2022/11/04 03:11:44;;;;;;;18.05;11.77;;;;;;;6.59;100.00;100113.03;6274033;22;20010;-85
2022/11/04 03:14:17;;;;;;;19.95;11.57;;;;;;;6.54;100.00;100110.59;6285798;22;20019;-85
2022/11/04 03:16:49;;;;;;;19.33;12.05;;;;;;;6.56;100.00;100115.78;6286314;22;20003;-85
2022/11/04 03:19:43;;;;;;;18.83;10.80;;;;;;;6.54;100.00;100123.81;6287884;22;20291;-85
2022/11/04 03:22:14;;;;;;;;;;;;;;;6.51;100.00;100117.81;6278468;22;20019;-86
2022/11/04 03:24:41;;;;;;;12.15;9.05;;;;;;;6.55;100.00;100111.44;6276288;22;19938;-85
2022/11/04 03:27:30;;;;;;;15.50;9.23;;;;;;;6.53;100.00;100114.16;6272483;22;19999;-85
2022/11/04 03:30:22;;;;;;;12.43;8.18;;;;;;;6.50;100.00;100119.59;6270872;22;20000;-85
2022/11/04 03:33:06;;;;;;;16.90;8.02;;;;;;;6.47;100.00;100114.44;6268606;22;20017;-85
2022/11/04 03:35:31;;;;;;;;;;;;;;;6.43;100.00;100111.06;6274574;22;20083;-86
2022/11/04 03:37:57;;;;;;;11.32;6.90;;;;;;;6.42;100.00;100109.34;6275202;22;19903;-85
2022/11/04 03:40:23;;;;;;;14.50;7.05;;;;;;;6.42;100.00;100119.94;6277524;22;20003;-84
2022/11/04 03:42:58;;;;;;;12.38;6.57;;;;;;;6.43;100.00;100119.00;6278036;22;20045;-84
2022/11/04 03:45:24;;;;;;;12.35;6.10;;;;;;;6.39;100.00;100117.41;6277436;22;20007;-85
2022/11/04 03:47:50;;;;;;;10.70;5.68;;;;;;;6.35;100.00;100107.91;6275587;22;20413;-85
2022/11/04 03:50:26;;;;;;;11.85;5.72;;;;;;;6.38;100.00;100121.00;6272624;22;20047;-85
2022/11/04 03:52:52;;;;;;;9.27;5.70;;;;;;;6.33;100.00;100117.72;6273185;22;20062;-85
2022/11/04 03:55:17;;;;;;;13.63;5.72;;;;;;;6.36;100.00;100122.00;6272399;22;20417;-85
2022/11/04 03:58:06;;;;;;;11.70;6.35;;;;;;;6.29;100.00;100105.56;6273848;22;20014;-84
2022/11/04 04:00:38;;;;;;;15.82;5.97;;;;;;;6.30;100.00;100117.84;6272552;22;20086;-86
2022/11/04 04:03:10;;;;;;;14.30;6.18;;;;;;;6.26;100.00;100115.41;6271650;22;20402;-85
2022/11/04 04:05:46;;;;;;;12.52;6.10;;;;;;;6.26;100.00;100110.13;6272074;22;20008;-85
2022/11/04 04:08:34;;;;;;;13.13;6.43;;;;;;;6.22;100.00;100112.88;6272148;22;20490;-86
2022/11/04 04:11:05;;;;;;;13.90;7.22;;;;;;;6.25;100.00;100114.56;6271796;22;19999;-86
2022/11/04 04:13:42;;;;;;;16.25;7.80;;;;;;;6.21;100.00;100113.81;6274147;22;20011;-85
2022/11/04 04:16:24;;;;;;;18.67;8.48;;;;;;;6.23;100.00;100114.63;6272911;22;20015;-86
2022/11/04 04:18:54;;;;;;;14.18;7.95;;;;;;;6.24;100.00;100123.41;6273475;22;20015;-84
2022/11/04 04:21:23;;;;;;;14.60;7.35;;;;;;;6.17;100.00;100114.88;6270612;22;20319;-85
2022/11/04 04:29:25;;;;;;;16.20;7.05;;;;;;;6.12;100.00;100130.09;6272672;22;20892;-86
2022/11/04 04:31:56;;;;;;;13.20;7.10;;;;;;;6.13;100.00;100133.59;6273066;22;19995;-86
2022/11/04 04:34:27;;;;;;;12.52;6.50;;;;;;;6.12;100.00;100139.81;6272677;22;20008;-86
2022/11/04 04:37:17;;;;;;;19.13;6.60;;;;;;;6.06;100.00;100140.06;6273287;22;20138;-84
2022/11/04 04:45:31;;;;;;;17.17;6.93;;;;;;;6.04;100.00;100140.13;6273031;22;20046;-85
2022/11/04 04:47:56;;;;;;;15.18;6.72;;;;;;;5.99;100.00;100137.69;6274215;22;20137;-85
2022/11/04 04:50:24;;;;;;;15.52;7.32;;;;;;;6.01;100.00;100131.47;6273159;22;20031;-85
2022/11/04 04:52:53;;;;;;;12.18;7.18;;;;;;;5.98;100.00;100137.78;6274229;22;20011;-86
2022/11/04 04:55:18;;;;;;;13.80;7.07;;;;;;;5.92;100.00;100136.22;6274900;22;20003;-86
2022/11/04 04:57:44;;;;;;;15.85;7.30;;;;;;;6.00;100.00;100151.75;6273833;22;20004;-85
2022/11/04 05:00:15;;;;;;;17.20;7.32;;;;;;;5.92;100.00;100153.88;6272853;22;20012;-85
2022/11/04 05:02:41;;;;;;;15.70;8.20;;;;;;;5.89;100.00;100148.69;6271202;22;20065;-85
2022/11/04 05:05:07;;;;;;;13.73;7.38;;;;;;;5.84;100.00;100156.78;6269404;22;20060;-85
2022/11/04 05:07:33;;;;;;;19.23;8.30;;;;;;;5.72;100.00;100136.19;6272761;22;20023;-86
2022/11/04 05:09:58;;;;;;;14.27;7.45;;;;;;;5.78;100.00;100151.78;6271641;22;20012;-86
2022/11/04 05:12:23;;;;;;;14.10;7.63;;;;;;;5.75;100.00;100154.56;6273297;22;20057;-87
2022/11/04 05:14:49;;;;;;;10.13;7.15;;;;;;;5.69;100.00;100162.75;6273641;22;20012;-86
2022/11/04 05:17:14;;;;;;;11.93;7.68;;;;;;;5.75;100.00;100163.31;6272429;22;20071;-85
2022/11/04 05:19:40;;;;;;;13.70;7.35;;;;;;;5.78;100.00;100172.91;6273807;22;20057;-86
2022/11/04 05:22:06;;;;;;;14.77;7.57;;;;;;;5.79;100.00;100166.69;6270794;22;20419;-85
2022/11/04 05:24:31;;;;;;;14.18;7.80;;;;;;;5.84;100.00;100174.44;6273036;22;20011;-85
2022/11/04 05:26:56;;;;;;;15.60;7.82;;;;;;;5.90;100.00;100168.91;6274488;22;20007;-86
2022/11/04 05:29:21;;;;;;;16.42;7.82;;;;;;;6.03;100.00;100177.19;6272964;22;20000;-85
2022/11/04 05:31:47;;;;;;;16.60;7.60;;;;;;;6.04;100.00;100177.13;6273233;22;20438;-85
2022/11/04 05:34:12;;;;;;;14.02;8.00;;;;;;;6.06;100.00;100170.00;6270822;22;20006;-86
2022/11/04 05:36:38;;;;;;;15.88;7.63;;;;;;;6.19;100.00;100178.25;6269895;22;20038;-85
2022/11/04 05:39:05;;;;;;;14.73;7.70;;;;;;;6.22;100.00;100180.75;6270379;22;20003;-85
2022/11/04 05:41:30;;;;;;;14.70;8.20;;;;;;;6.26;100.00;100187.63;6272192;22;20010;-86
2022/11/04 05:44:01;;;;;;;15.15;9.15;;;;;;;6.20;100.00;100174.69;6272649;22;20070;-86
2022/11/04 05:46:27;;;;;;;17.00;8.98;;;;;;;6.34;100.00;100190.78;6272257;22;20000;-86
2022/11/04 05:48:53;;;;;;;17.08;9.32;;;;;;;6.35;100.00;100189.84;6272438;22;20010;-86
2022/11/04 05:51:21;;;;;;;19.33;9.15;;;;;;;6.33;100.00;100190.88;6272138;22;20031;-86
2022/11/04 05:53:47;;;;;;;13.77;8.40;;;;;;;6.31;100.00;100197.97;6272697;22;20038;-85
2022/11/04 05:56:12;;;;;;;13.77;8.73;;;;;;;6.28;100.00;100192.84;6272255;22;20003;-84
2022/11/04 05:58:38;;;;;;;15.73;8.05;;;;;;;6.21;100.00;100194.88;6272336;22;20027;-85
2022/11/04 06:01:24;;;;;;;15.50;8.43;;;;;;;6.13;100.00;100213.72;6268917;22;20065;-85
2022/11/04 06:03:51;;;;;;;13.98;6.95;;;;;;;6.00;100.00;100212.53;6272383;22;20023;-85
2022/11/04 06:06:16;;;;;;;11.45;6.80;;;;;;;5.95;100.00;100212.72;6270479;22;20186;-85
2022/11/04 06:08:41;;;;;;;15.30;6.30;;;;;;;5.88;100.00;100205.94;6273756;22;20571;-84
2022/11/04 06:11:07;;;;;;;14.18;6.75;;;;;;;5.80;100.00;100200.09;6273773;22;19996;-85
2022/11/04 06:13:32;;;;;;;12.57;6.50;;;;;;;5.89;100.00;100212.91;6269639;22;20004;-84
2022/11/04 06:15:57;;;;;;;10.32;6.32;;;;;;;5.87;100.00;100217.41;6271683;22;20034;-84
2022/11/04 06:18:23;;;;;;;10.25;6.80;;;;;;;5.84;100.00;100217.53;6273148;22;20012;-85
2022/11/04 06:20:48;;;;;;;10.90;6.57;;;;;;;5.81;100.00;100217.69;6277115;22;20416;-86
2022/11/04 06:23:13;;;;;;;13.88;7.57;;;;;;;5.79;100.00;100224.78;6277933;22;20007;-84
2022/11/04 06:25:38;;;;;;;15.05;7.15;;;;;;;5.73;100.00;100227.72;6277068;22;20315;-83
2022/11/04 06:28:04;;;;;;;15.85;7.57;;;;;;;5.71;100.00;100234.81;6273744;22;20436;-83
2022/11/04 06:30:29;;;;;;;12.77;6.32;;;;;;;5.67;100.00;100239.34;6270112;22;20042;-85
2022/11/04 06:32:54;;;;;;;12.23;7.00;;;;;;;5.67;100.00;100234.06;6270988;22;20012;-85
2022/11/04 06:35:19;;;;;;;12.25;6.68;;;;;;;5.63;100.00;100226.34;6275181;22;20010;-85
2022/11/04 06:37:45;;;;;;;13.70;6.32;;;;;;;5.59;100.00;100228.25;6273814;22;20050;-85
2022/11/04 06:40:10;;;;;;;11.73;6.50;;;;;;;5.56;100.00;100235.41;6273025;22;20010;-85
2022/11/04 06:42:35;;;;;;;11.68;6.95;;;;;;;5.47;100.00;100226.09;6274689;22;20410;-84
2022/11/04 06:45:01;;;;;;;10.57;7.25;;;;;;;5.45;100.00;100231.44;6272865;22;20003;-85
2022/11/04 06:47:26;;;;;;;11.10;7.40;;;;;;;5.45;100.00;100249.91;6272285;22;20011;-84
2022/11/04 06:49:51;;;;;;;10.98;6.88;;;;;;;5.48;100.00;100248.94;6272722;22;20022;-86
2022/11/04 06:52:17;;;;;;;15.45;6.82;;;;;;;5.38;100.00;100243.16;6274160;22;20090;-85
2022/11/04 06:54:42;;;;;;;14.02;7.43;;;;;;;5.48;100.00;100246.31;6272592;22;20010;-85
2022/11/04 06:57:11;;;;;;;11.77;7.68;;;;;;;5.49;100.00;100259.44;6271019;22;19999;-84
2022/11/04 06:59:36;;;;;;;14.13;8.38;;;;;;;5.56;100.00;100256.53;6271761;22;20010;-84
2022/11/04 07:02:01;;;;;;;13.93;7.82;;;;;;;5.60;100.00;100248.47;6272820;22;20429;-85
2022/11/04 07:04:26;;;;;;;14.98;8.52;;;;;;;5.78;100.00;100260.06;6272534;22;20050;-84
2022/11/04 07:06:52;;;;;;;13.60;8.77;;;;;;;5.88;100.00;100264.03;6272084;22;20011;-85
2022/11/04 07:09:17;;;;;;;13.27;8.75;;;;;;;5.94;100.00;100262.97;6272045;22;20479;-86
2022/11/04 07:11:44;;;;;;;15.88;7.80;;;;;;;5.98;100.00;100262.78;6270410;22;20010;-86
2022/11/04 07:14:10;;;;;;;13.05;8.23;;;;;;;6.07;100.00;100265.97;6271763;22;20023;-86
2022/11/04 07:16:36;;;;;;;16.65;8.13;;;;;;;6.08;100.00;100260.59;6271303;22;20000;-86
2022/11/04 07:19:02;;;;;;;16.25;8.30;;;;;;;6.23;100.00;100280.25;6270864;22;20379;-85
2022/11/04 07:21:27;;;;;;;14.02;8.98;;;;;;;6.31;100.00;100279.91;6270822;22;20449;-84
2022/11/04 07:23:52;;;;;;;15.48;9.02;;;;;;;6.43;100.00;100284.69;6272808;22;20080;-84
2022/11/04 07:26:18;;;;;;;11.75;8.55;;;;;;;6.51;100.00;100279.06;6272020;22;20093;-85
2022/11/04 07:28:43;;;;;;;15.70;9.63;;;;;;;6.59;100.00;100280.47;6275550;22;19999;-85
2022/11/04 07:31:11;;;;;;;16.88;9.32;;;;;;;6.63;100.00;100289.13;6273124;22;20054;-86
2022/11/04 07:33:36;;;;;;;15.88;8.13;;;;;;;6.68;100.00;100287.13;6274370;22;20026;-85
2022/11/04 07:36:07;;;;;;;12.60;8.10;;;;;;;6.71;100.00;100287.00;6274057;22;20008;-84
2022/11/04 07:38:32;;;;;;;13.02;8.00;;;;;;;6.78;100.00;100292.91;6271769;22;20090;-83
2022/11/04 07:40:58;;;;;;;14.82;8.45;;;;;;;6.80;100.00;100296.31;6273197;22;19999;-84
2022/11/04 07:43:23;;;;;;;13.85;8.00;;;;;;;6.84;100.00;100295.25;6273593;22;20015;-84
2022/11/04 07:46:03;;;;;;;13.73;7.47;;;;;;;6.94;100.00;100304.53;6274741;22;20003;-83
2022/11/04 07:48:29;;;;;;;14.18;7.22;;;;;;;6.96;100.00;100306.16;6270479;22;20007;-83
2022/11/04 07:50:58;;;;;;;11.73;7.90;;;;;;;7.02;100.00;100309.44;6271781;22;20011;-83
2022/11/04 07:53:25;;;;;;;16.13;8.45;;;;;;;7.09;100.00;100310.91;6278681;22;20099;-83
2022/11/04 07:55:50;;;;;;;13.13;7.68;;;;;;;7.12;100.00;100316.06;6277178;22;20066;-84
2022/11/04 07:58:18;;;;;;;12.13;6.88;;;;;;;7.20;100.00;100314.78;6273399;22;20625;-83
2022/11/04 08:00:43;;;;;;;14.43;7.45;;;;;;;7.31;100.00;100316.94;6274010;22;20057;-84
2022/11/04 08:03:08;;;;;;;12.82;7.00;;;;;;;7.33;100.00;100307.16;6270620;22;20510;-83
2022/11/04 08:05:34;;;;;;;12.38;6.72;;;;;;;7.43;100.00;100316.38;6272787;22;20003;-86
2022/11/04 08:07:59;;;;;;;16.00;7.30;;;;;;;7.57;100.00;100321.03;6272056;22;20087;-84
2022/11/04 08:10:24;;;;;;;15.13;6.82;;;;;;;7.58;100.00;100320.09;6271371;22;19999;-83
2022/11/04 08:12:51;;;;;;;11.52;6.40;;;;;;;7.63;100.00;100325.19;6271877;22;19999;-83
2022/11/04 08:15:16;;;;;;;12.02;6.80;;;;;;;7.62;100.00;100324.31;6270982;22;20004;-83
2022/11/04 08:17:41;;;;;;;10.15;6.43;;;;;;;7.62;100.00;100326.13;6271756;22;20333;-86
2022/11/04 08:20:08;;;;;;;13.57;6.78;;;;;;;7.60;100.00;100325.31;6270864;22;20046;-82
2022/11/04 08:22:33;;;;;;;13.45;6.32;;;;;;;7.58;100.00;100330.69;6268284;22;20003;-82
2022/11/04 08:24:59;;;;;;;12.13;6.70;;;;;;;7.51;100.00;100337.19;6270880;22;20000;-84
2022/11/04 08:27:24;;;;;;;12.02;6.60;;;;;;;7.46;100.00;100344.50;6268465;22;20027;-84
2022/11/04 08:29:50;;;;;;;12.88;6.80;;;;;;;7.35;100.00;100338.84;6268095;22;20004;-83
2022/11/04 08:32:15;;;;;;;13.50;7.10;;;;;;;7.51;100.00;100362.81;6271795;22;20063;-84
2022/11/04 08:34:41;;;;;;;11.02;6.95;;;;;;;7.66;100.00;100348.88;6273216;22;20381;-84
2022/11/04 08:37:06;;;;;;;9.10;6.97;;;;;;;7.87;100.00;100350.53;6269066;22;20004;-84
2022/11/04 08:39:32;;;;;;;14.07;7.55;;;;;;;8.22;100.00;100369.16;6271598;22;20566;-84
2022/11/04 08:41:57;;;;;;;10.23;7.45;;;;;;;8.44;100.00;100355.72;6269144;22;20079;-84
2022/11/04 08:44:22;;;;;;;12.68;6.70;;;;;;;8.58;100.00;100363.03;6276226;22;20007;-83
2022/11/04 08:46:48;;;;;;;11.07;7.25;;;;;;;8.70;100.00;100359.75;6280377;22;20004;-84
2022/11/04 08:49:13;;;;;;;10.85;6.82;;;;;;;8.77;100.00;100366.44;6279617;22;20333;-83
2022/11/04 08:51:42;;;;;;;10.77;6.40;;;;;;;8.84;100.00;100367.00;6280972;22;20021;-84
2022/11/04 08:54:08;;;;;;;11.95;6.63;;;;;;;8.93;100.00;100359.41;6273143;22;20053;-84
2022/11/04 08:56:36;;;;;;;11.30;6.45;;;;;;;9.00;100.00;100370.59;6274004;22;20004;-84
2022/11/04 08:59:03;;;;;;;12.50;6.47;;;;;;;9.08;100.00;100370.19;6271605;22;20015;-83
2022/11/04 09:01:31;;;;;;;11.88;6.78;;;;;;;9.35;100.00;100366.06;6272800;22;20075;-83
2022/11/04 09:03:57;;;;;;;13.85;7.00;;;;;;;9.78;100.00;100382.34;6273590;22;20042;-83
2022/11/04 09:06:26;;;;;;;14.18;6.68;;;;;;;10.17;100.00;100381.06;6273735;22;20398;-84
2022/11/04 09:08:54;;;;;;;12.20;7.15;;;;;;;10.45;100.00;100385.72;6272636;22;20019;-84
2022/11/04 09:11:19;;;;;;;12.80;7.25;;;;;;;10.98;100.00;100395.00;6270114;22;20027;-84
2022/11/04 09:13:45;;;;;;;12.15;6.03;;;;;;;11.41;96.87;100384.41;6268288;22;20083;-84
2022/11/04 09:16:12;;;;;;;10.90;5.40;;;;;;;11.63;95.22;100384.81;6271156;22;20473;-84
2022/11/04 09:18:37;;;;;;;11.20;4.90;;;;;;;11.79;94.62;100389.16;6271511;22;20000;-84
2022/11/04 09:21:05;;;;;;;9.45;4.70;;;;;;;11.80;93.95;100390.88;6270682;22;20049;-84
2022/11/04 09:23:30;;;;;;;8.48;4.90;;;;;;;11.76;91.23;100387.56;6271752;22;20078;-84
2022/11/04 09:25:57;;;;;;;8.95;4.63;;;;;;;11.65;93.30;100401.53;6270972;22;20027;-84
2022/11/04 09:28:23;;;;;;;7.75;4.50;;;;;;;11.38;93.99;100406.78;6271349;22;20045;-84
2022/11/04 09:30:49;;;;;;;8.00;4.28;;;;;;;11.26;94.37;100412.00;6271233;22;20015;-84
2022/11/04 09:33:15;;;;;;;8.77;4.70;;;;;;;11.20;95.72;100416.75;6273218;22;20323;-84
2022/11/04 09:35:40;;;;;;;10.90;5.05;;;;;;;11.11;95.57;100424.44;6270771;22;20014;-83
2022/11/04 09:38:05;;;;;;;11.60;4.93;;;;;;;10.90;96.22;100435.41;6271293;22;20832;-83
2022/11/04 09:40:34;;;;;;;11.27;6.20;;;;;;;10.85;98.27;100432.16;6272168;22;20050;-83
2022/11/04 09:43:24;;;;;;;11.98;5.45;;;;;;;10.87;98.56;100437.41;6271032;22;20011;-84
2022/11/04 09:45:49;;;;;;;10.73;5.65;;;;;;;10.83;98.83;100441.19;6271305;22;20042;-82
2022/11/04 09:48:41;;;;;;;11.80;4.93;;;;;;;10.82;99.38;100442.97;6269261;22;20003;-82
2022/11/04 09:51:07;;;;;;;11.45;5.00;;;;;;;10.71;96.69;100440.09;6270238;22;20004;-83
2022/11/04 09:53:41;;;;;;;7.35;4.97;;;;;;;10.67;97.91;100444.72;6271300;22;20440;-83
2022/11/04 09:56:11;;;;;;;;;;;;;;;10.93;100.00;100445.88;6273694;22;20003;-83
2022/11/04 09:58:38;;;;;;;12.18;5.20;;;;;;;10.83;96.18;100444.72;6272942;22;19911;-84
2022/11/04 10:01:26;;;;;;;12.63;5.32;;;;;;;11.12;97.88;100445.66;6273128;22;20027;-83
2022/11/04 10:04:14;;;;;;;11.52;5.03;;;;;;;11.44;95.86;100451.69;6273055;22;20372;-84
2022/11/04 10:07:10;;;;;;;11.23;5.13;;;;;;;11.79;95.56;100461.16;6273017;22;20015;-84
2022/11/04 10:09:59;;;;;;;13.13;5.22;;;;;;;12.10;92.71;100455.66;6272883;22;20497;-83
2022/11/04 10:12:34;;;;;;;12.52;4.85;;;;;;;12.52;90.48;100456.53;6274075;22;20054;-84
2022/11/04 10:15:30;;;;;;;7.88;4.95;;;;;;;12.70;88.68;100455.31;6273488;22;20008;-84
2022/11/04 10:18:20;;;;;;;12.32;4.85;;;;;;;12.93;88.04;100455.63;6272542;22;20027;-83
2022/11/04 10:21:00;;;;;;;13.63;5.25;;;;;;;13.02;85.43;100455.00;6271679;22;20011;-83
2022/11/04 10:23:33;;;;;;;11.65;5.55;;;;;;;12.90;86.77;100459.31;6272830;22;20020;-83
2022/11/04 10:26:05;;;;;;;10.68;5.43;;;;;;;13.08;84.34;100470.59;6272640;22;20003;-84
2022/11/04 10:28:42;;;;;;;11.80;5.15;;;;;;;13.09;85.92;100471.47;6275077;22;20018;-82
2022/11/04 10:31:13;;;;;;;10.40;5.70;;;;;;;12.97;84.34;100478.50;6271474;22;20008;-82
2022/11/04 10:33:43;;;;;;;12.27;6.00;;;;;;;12.85;83.88;100484.66;6274729;22;20004;-84
2022/11/04 10:36:09;;;;;;;9.07;6.10;;;;;;;12.61;85.73;100487.94;6272432;22;20106;-84
2022/11/04 10:38:43;;;;;;;9.57;5.60;;;;;;;12.33;86.19;100483.56;6269198;22;20025;-82
2022/11/04 10:41:15;;;;;;;12.65;5.90;;;;;;;12.14;87.13;100483.84;6271359;22;20006;-83
2022/11/04 10:43:40;;;;;;;10.52;5.80;;;;;;;12.10;87.90;100490.34;6273436;22;20422;-83
2022/11/04 10:46:08;;;;;;;14.23;6.50;;;;;;;12.34;87.21;100485.25;6273150;22;20307;-83
2022/11/04 10:49:15;;;;;;;11.35;6.03;;;;;;;12.58;88.52;100489.97;6272362;22;20010;-83
2022/11/04 10:51:41;;;;;;;13.52;6.10;;;;;;;12.64;86.04;100495.78;6177997;23;20440;-82
2022/11/04 10:54:10;;;;;;;13.45;5.82;;;;;;;12.70;85.34;100494.50;6178013;23;20016;-84
2022/11/04 10:56:42;;;;;;;13.73;6.53;;;;;;;12.85;84.87;100492.66;6177800;23;20043;-84
2022/11/04 10:59:23;;;;;;;12.48;6.60;;;;;;;12.92;85.71;100491.31;6178875;23;20013;-83
2022/11/04 11:01:52;;;;;;;13.88;6.32;;;;;;;12.78;83.04;100491.34;6181044;23;20040;-83
2022/11/04 11:04:45;;;;;;;17.42;6.75;;;;;;;12.56;84.99;100491.88;6153953;23;20058;-83
2022/11/04 11:07:17;;;;;;;11.88;6.32;;;;;;;12.08;85.86;100494.03;6176100;23;20027;-82
2022/11/04 11:09:45;;;;;;;9.18;6.55;;;;;;;11.82;87.21;100482.28;6180151;23;20020;-82
2022/11/04 11:12:13;;;;;;;13.48;7.18;;;;;;;11.66;86.88;100495.69;6179498;23;20020;-83
2022/11/04 11:14:40;;;;;;;13.95;7.35;;;;;;;11.42;87.07;100490.94;6178209;23;20486;-82
2022/11/04 11:17:14;;;;;;;12.13;8.27;;;;;;;11.33;89.42;100494.16;6149822;23;20469;-83
2022/11/04 11:19:52;;;;;;;11.80;8.32;;;;;;;11.32;89.93;100497.72;6178682;23;20067;-84
2022/11/04 11:22:38;;;;;;;14.23;8.15;;;;;;;11.44;90.17;100502.34;6177669;23;20036;-83
2022/11/04 11:25:12;;;;;;;18.33;9.23;;;;;;;11.87;90.88;100505.13;6205302;22;20002;-84
2022/11/04 11:27:38;;;;;;;13.27;9.10;;;;;;;12.37;87.79;100501.09;6270346;22;20004;-84
2022/11/04 11:30:03;;;;;;;12.00;8.18;;;;;;;12.92;84.16;100502.00;6274383;22;20010;-85
2022/11/04 11:32:34;;;;;;;11.82;8.10;;;;;;;13.10;83.14;100505.25;6276660;22;20476;-83
2022/11/04 11:35:00;;;;;;;12.50;8.15;;;;;;;13.09;81.25;100501.72;6278885;22;20012;-83
2022/11/04 11:37:29;;;;;;;14.95;8.60;;;;;;;12.94;81.54;100500.91;6283364;22;20023;-82
2022/11/04 11:39:56;;;;;;;15.20;8.80;;;;;;;12.82;81.54;100506.19;6275272;22;20004;-83
2022/11/04 11:42:22;;;;;;;13.00;8.65;;;;;;;12.63;81.49;100501.22;6270313;22;20080;-83
2022/11/04 11:44:50;;;;;;;13.45;9.40;;;;;;;12.51;81.11;100504.69;6272573;22;20008;-82
2022/11/04 11:47:24;;;;;;;18.17;9.73;;;;;;;12.40;82.15;100510.69;6271560;22;20082;-82
2022/11/04 11:50:05;;;;;;;12.98;9.25;;;;;;;12.17;83.43;100509.50;6273140;22;20050;-83
2022/11/04 11:52:38;;;;;;;13.23;9.45;;;;;;;12.01;83.15;100527.41;6272948;22;20288;-83
2022/11/04 11:55:03;;;;;;;13.85;9.68;;;;;;;11.90;81.98;100531.56;6273359;22;20000;-84
2022/11/04 11:57:38;;;;;;;12.68;9.52;;;;;;;11.83;82.24;100529.38;6272683;22;20396;-82
2022/11/04 12:00:09;;;;;;;14.00;9.20;;;;;;;11.72;82.97;100533.53;6271661;22;20692;-82